Time;durP1;ratioP1;P1;durP2;ratioP2;P2;SDS_P1;SDS_P2;PMS_P1;PMS_P2;Temp;Humidity;BMP_temperature;BMP_pressure;BME280_temperature;BME280_humidity;BME280_pressure;Samples;Min_cycle;Max_cycle;Signal;HPM_P1;HPM_P2
2021/07/03 00:00:48;;;;;;;7.25;5.25;;;20.90;60.70;;;;;;10168943;28;20502;-59
2021/07/03 00:05:39;;;;;;;6.63;4.47;;;20.60;61.40;;;;;;10170875;28;20165;-59
2021/07/03 00:10:30;;;;;;;8.07;4.88;;;20.70;61.50;;;;;;10168247;28;20360;-59
2021/07/03 00:15:21;;;;;;;7.32;4.80;;;20.80;61.30;;;;;;10173923;28;20043;-59
2021/07/03 00:20:13;;;;;;;8.32;5.55;;;20.70;61.50;;;;;;10166306;28;20036;-59
2021/07/03 00:25:05;;;;;;;6.85;4.18;;;20.60;62.10;;;;;;10170618;28;20101;-59
2021/07/03 00:29:56;;;;;;;6.60;4.70;;;20.50;62.50;;;;;;10164768;28;20097;-57
2021/07/03 00:34:47;;;;;;;6.50;4.65;;;20.40;62.60;;;;;;10167168;28;20019;-59
2021/07/03 00:39:38;;;;;;;8.05;4.53;;;20.40;62.60;;;;;;10173251;28;20036;-60
2021/07/03 00:44:30;;;;;;;7.60;4.00;;;20.30;62.60;;;;;;10165219;28;20087;-62
2021/07/03 00:49:21;;;;;;;9.38;4.63;;;20.40;62.80;;;;;;10170835;28;20081;-60
2021/07/03 00:54:13;;;;;;;8.00;4.28;;;20.30;62.60;;;;;;10167723;28;20190;-58
2021/07/03 00:59:03;;;;;;;7.95;4.07;;;20.40;62.70;;;;;;10165669;28;20466;-61
2021/07/03 01:03:54;;;;;;;6.53;4.55;;;20.30;62.70;;;;;;10162025;28;20059;-58
2021/07/03 01:08:45;;;;;;;7.75;4.32;;;20.30;62.60;;;;;;10163731;28;20107;-58
2021/07/03 01:13:35;;;;;;;5.82;4.25;;;20.30;62.70;;;;;;10163818;28;20024;-60
2021/07/03 01:18:26;;;;;;;7.05;4.60;;;20.10;63.20;;;;;;10161839;28;20213;-59
2021/07/03 01:23:18;;;;;;;7.18;4.70;;;20.20;63.00;;;;;;10163999;28;20031;-58
2021/07/03 01:28:08;;;;;;;6.97;4.93;;;20.10;63.20;;;;;;10161362;28;20234;-58
2021/07/03 01:32:59;;;;;;;8.82;5.18;;;20.10;63.30;;;;;;10163314;28;20101;-58
2021/07/03 01:37:50;;;;;;;7.07;4.40;;;19.90;63.40;;;;;;10163730;28;20039;-59
2021/07/03 01:42:41;;;;;;;9.65;4.40;;;19.90;63.80;;;;;;10163278;28;20043;-59
2021/07/03 01:47:31;;;;;;;8.27;4.40;;;20.00;63.70;;;;;;10164027;28;20444;-59
2021/07/03 01:52:22;;;;;;;9.00;5.68;;;19.80;63.80;;;;;;10153949;28;20513;-58
2021/07/03 01:57:13;;;;;;;7.20;4.65;;;19.80;64.10;;;;;;10163331;28;20028;-59
2021/07/03 02:02:04;;;;;;;8.10;5.10;;;19.70;64.30;;;;;;10164258;28;20554;-59
2021/07/03 02:06:55;;;;;;;8.30;5.43;;;19.70;64.40;;;;;;10163632;28;20108;-59
2021/07/03 02:11:46;;;;;;;6.75;5.00;;;19.70;64.60;;;;;;10162070;28;20299;-58
2021/07/03 02:16:37;;;;;;;8.88;4.70;;;19.60;64.80;;;;;;10166872;28;20021;-58
2021/07/03 02:21:28;;;;;;;7.85;4.63;;;19.60;64.70;;;;;;10158595;28;20097;-59
2021/07/03 02:26:20;;;;;;;6.97;4.78;;;19.70;64.90;;;;;;10149349;28;20529;-58
2021/07/03 02:31:11;;;;;;;7.85;5.07;;;19.60;65.10;;;;;;10165375;28;20040;-59
2021/07/03 02:36:01;;;;;;;7.38;5.22;;;19.40;65.60;;;;;;10165276;28;20107;-59
2021/07/03 02:40:52;;;;;;;7.93;5.28;;;19.40;65.70;;;;;;10171822;28;20647;-59
2021/07/03 02:45:43;;;;;;;8.63;4.93;;;19.40;65.90;;;;;;10170175;28;20681;-59
2021/07/03 02:50:34;;;;;;;8.75;5.35;;;19.30;66.00;;;;;;10155986;28;20040;-59
2021/07/03 02:55:25;;;;;;;9.38;4.85;;;19.20;66.60;;;;;;10171721;28;20111;-60
2021/07/03 03:00:17;;;;;;;7.90;4.65;;;19.00;67.10;;;;;;10170111;28;20056;-59
2021/07/03 03:05:10;;;;;;;8.32;5.35;;;19.10;67.30;;;;;;10155110;28;20032;-61
2021/07/03 03:10:02;;;;;;;9.93;5.40;;;19.10;67.40;;;;;;10153934;28;20089;-58
2021/07/03 03:14:52;;;;;;;9.10;5.80;;;18.90;67.90;;;;;;10165489;28;20722;-58
2021/07/03 03:19:43;;;;;;;10.98;6.20;;;18.80;68.20;;;;;;10169199;28;20040;-59
2021/07/03 03:24:34;;;;;;;8.75;5.50;;;18.80;68.60;;;;;;10166420;28;20518;-59
2021/07/03 03:29:24;;;;;;;9.43;5.78;;;18.80;68.80;;;;;;10152565;28;20539;-59
2021/07/03 03:34:15;;;;;;;6.20;5.10;;;18.80;69.10;;;;;;10169133;28;20043;-59
2021/07/03 03:39:06;;;;;;;12.50;7.35;;;18.80;69.40;;;;;;10166129;28;20103;-59
2021/07/03 03:43:57;;;;;;;10.07;6.10;;;18.80;69.70;;;;;;10167414;28;20439;-60
2021/07/03 03:48:48;;;;;;;9.13;5.88;;;18.90;69.70;;;;;;10165718;28;20094;-59
2021/07/03 03:53:38;;;;;;;7.13;5.00;;;18.80;70.10;;;;;;10166899;28;20031;-59
2021/07/03 03:58:29;;;;;;;8.82;5.63;;;18.80;70.30;;;;;;10163606;28;20040;-60
2021/07/03 04:03:20;;;;;;;9.57;5.93;;;18.90;70.50;;;;;;10166436;28;20216;-58
2021/07/03 04:08:11;;;;;;;11.27;5.63;;;18.80;70.90;;;;;;10166616;28;20043;-59
2021/07/03 04:13:02;;;;;;;7.90;5.78;;;18.70;71.10;;;;;;10155297;28;20047;-59
2021/07/03 04:17:52;;;;;;;10.15;6.03;;;18.90;71.20;;;;;;10167198;28;20048;-59
2021/07/03 04:22:43;;;;;;;9.77;6.50;;;18.80;71.60;;;;;;10162749;28;20051;-59
2021/07/03 04:27:35;;;;;;;10.30;6.43;;;18.90;71.60;;;;;;10166451;28;20036;-59
2021/07/03 04:32:26;;;;;;;8.50;5.65;;;19.00;71.50;;;;;;10161665;28;20535;-61
2021/07/03 04:37:17;;;;;;;9.27;6.20;;;18.90;71.80;;;;;;10165557;28;20039;-59
2021/07/03 04:42:07;;;;;;;9.35;6.00;;;19.00;71.90;;;;;;10162896;28;20439;-59
2021/07/03 04:46:58;;;;;;;8.75;5.30;;;19.10;72.10;;;;;;10163307;28;20256;-59
2021/07/03 04:51:49;;;;;;;7.22;5.03;;;19.10;72.00;;;;;;10163936;28;20040;-59
2021/07/03 04:56:39;;;;;;;7.78;5.40;;;19.20;72.00;;;;;;10161920;28;20548;-59
2021/07/03 05:01:30;;;;;;;8.35;5.22;;;19.20;72.30;;;;;;10161150;28;20606;-59
2021/07/03 05:06:21;;;;;;;8.23;4.55;;;19.20;72.40;;;;;;10160674;28;20051;-58
2021/07/03 05:11:12;;;;;;;8.80;6.15;;;19.40;72.30;;;;;;10165029;28;20040;-59
2021/07/03 05:16:03;;;;;;;9.18;5.90;;;19.40;72.20;;;;;;10161374;28;20035;-59
2021/07/03 05:20:54;;;;;;;9.05;5.72;;;19.40;72.30;;;;;;10163511;28;20135;-58
2021/07/03 05:25:45;;;;;;;10.90;6.20;;;19.50;72.20;;;;;;10163212;28;20055;-58
2021/07/03 05:30:36;;;;;;;11.63;6.22;;;19.50;72.00;;;;;;10149432;28;20036;-60
2021/07/03 05:35:27;;;;;;;8.43;5.13;;;19.40;72.20;;;;;;10163811;28;20032;-58
2021/07/03 05:40:18;;;;;;;11.85;5.70;;;19.30;72.50;;;;;;10161704;28;20044;-58
2021/07/03 05:45:09;;;;;;;9.73;6.32;;;19.20;72.70;;;;;;10163273;28;20036;-58
2021/07/03 05:50:00;;;;;;;7.57;4.82;;;19.20;73.20;;;;;;10162102;28;20692;-58
2021/07/03 05:54:50;;;;;;;8.48;5.53;;;19.30;72.90;;;;;;10162911;28;20043;-59
2021/07/03 05:59:41;;;;;;;8.02;5.45;;;19.30;72.50;;;;;;10161410;28;20036;-59
2021/07/03 06:04:32;;;;;;;8.88;5.18;;;19.40;72.20;;;;;;10161648;28;20506;-59
2021/07/03 06:09:23;;;;;;;7.05;4.90;;;19.50;71.90;;;;;;10144867;28;20474;-59
2021/07/03 06:14:13;;;;;;;7.72;4.97;;;19.60;71.70;;;;;;10166437;28;20024;-60
2021/07/03 06:19:04;;;;;;;9.98;6.13;;;19.80;71.40;;;;;;10169151;28;20036;-58
2021/07/03 06:23:55;;;;;;;7.70;4.20;;;19.80;71.20;;;;;;10168435;28;20387;-59
2021/07/03 06:28:45;;;;;;;6.93;5.22;;;19.90;71.00;;;;;;10157997;28;20032;-59
2021/07/03 06:33:37;;;;;;;10.52;5.18;;;20.00;70.60;;;;;;10166984;28;20237;-59
2021/07/03 06:38:27;;;;;;;6.25;4.38;;;20.10;70.20;;;;;;10167651;28;20043;-59
2021/07/03 06:43:18;;;;;;;6.80;4.72;;;20.20;70.00;;;;;;10169004;28;20343;-58
2021/07/03 06:48:09;;;;;;;8.82;5.05;;;20.20;69.70;;;;;;10166906;28;20030;-57
2021/07/03 06:52:59;;;;;;;6.68;4.38;;;20.40;69.20;;;;;;10165057;28;20047;-59
2021/07/03 06:57:51;;;;;;;8.60;4.63;;;20.60;68.90;;;;;;10166083;28;20036;-58
2021/07/03 07:02:41;;;;;;;8.10;4.57;;;20.70;68.70;;;;;;10148349;28;20062;-59
2021/07/03 07:07:32;;;;;;;6.10;4.90;;;20.80;68.40;;;;;;10166449;28;20033;-58
2021/07/03 07:12:23;;;;;;;8.18;5.32;;;20.90;68.60;;;;;;10167923;28;20043;-59
2021/07/03 07:17:14;;;;;;;7.75;5.03;;;20.90;67.80;;;;;;10165877;28;20042;-59
2021/07/03 07:22:04;;;;;;;8.65;4.60;;;20.90;67.50;;;;;;10167249;28;20052;-59
2021/07/03 07:26:55;;;;;;;9.07;5.18;;;20.90;67.40;;;;;;10166025;28;20037;-59
2021/07/03 07:31:47;;;;;;;7.25;4.05;;;21.10;67.00;;;;;;10165372;28;20024;-59
2021/07/03 07:36:38;;;;;;;7.57;4.50;;;21.10;66.70;;;;;;10167768;28;20032;-59
2021/07/03 07:41:28;;;;;;;6.85;4.30;;;21.20;66.30;;;;;;10165978;28;20044;-59
2021/07/03 07:46:19;;;;;;;8.95;4.57;;;21.30;65.80;;;;;;10167300;28;20028;-58
2021/07/03 07:51:10;;;;;;;7.85;3.85;;;21.30;65.60;;;;;;10165029;28;20075;-58
2021/07/03 07:56:01;;;;;;;6.57;3.70;;;21.50;65.20;;;;;;10166349;28;20036;-59
2021/07/03 08:00:52;;;;;;;8.43;5.20;;;21.60;64.90;;;;;;10164539;28;20534;-59
2021/07/03 08:05:44;;;;;;;7.35;4.63;;;21.60;64.60;;;;;;10166786;28;20055;-59
2021/07/03 08:10:38;;;;;;;10.18;4.13;;;21.70;64.40;;;;;;10165262;28;20128;-58
2021/07/03 08:15:31;;;;;;;5.50;4.13;;;21.80;64.00;;;;;;10165757;28;20020;-59
2021/07/03 08:20:23;;;;;;;10.20;4.65;;;21.90;63.60;;;;;;10166759;28;20520;-57
2021/07/03 08:25:15;;;;;;;5.50;3.88;;;22.10;63.00;;;;;;10166028;28;20731;-58
2021/07/03 08:30:07;;;;;;;5.53;4.07;;;22.10;62.80;;;;;;10149605;28;20052;-59
2021/07/03 08:34:58;;;;;;;7.93;4.20;;;22.40;62.30;;;;;;10149796;28;20024;-59
2021/07/03 08:39:49;;;;;;;5.45;4.40;;;22.40;62.00;;;;;;10165233;28;20097;-58
2021/07/03 08:44:45;;;;;;;6.93;5.05;;;22.50;61.60;;;;;;10164199;28;20082;-59
2021/07/03 08:49:36;;;;;;;6.65;4.13;;;22.70;61.20;;;;;;10166543;28;20119;-58
2021/07/03 08:54:26;;;;;;;5.93;3.40;;;22.90;60.80;;;;;;10162845;28;20035;-58
2021/07/03 08:59:22;;;;;;;5.97;3.70;;;23.00;60.30;;;;;;10163561;28;20079;-58
2021/07/03 09:04:13;;;;;;;4.55;3.40;;;23.10;59.90;;;;;;10164934;28;20032;-58
2021/07/03 09:09:03;;;;;;;6.43;3.65;;;23.20;59.50;;;;;;10164882;28;20036;-59
2021/07/03 09:14:07;;;;;;;5.55;4.40;;;23.10;59.20;;;;;;10155709;28;20059;-59
2021/07/03 09:19:00;;;;;;;4.93;3.47;;;23.20;58.70;;;;;;10143594;28;20690;-60
2021/07/03 09:23:51;;;;;;;4.50;3.47;;;23.40;58.20;;;;;;10164045;28;20501;-61
2021/07/03 09:28:44;;;;;;;6.00;3.65;;;23.40;58.60;;;;;;10161962;28;20028;-60
2021/07/03 09:33:49;;;;;;;5.50;3.92;;;23.50;57.60;;;;;;10163558;28;20061;-58
2021/07/03 09:38:51;;;;;;;5.70;3.95;;;23.60;57.40;;;;;;10146289;28;20542;-59
2021/07/03 09:43:53;;;;;;;6.38;2.92;;;23.60;57.00;;;;;;10151385;28;20432;-59
2021/07/03 09:48:53;;;;;;;5.78;3.75;;;23.90;56.30;;;;;;10158946;28;20036;-59
2021/07/03 09:53:44;;;;;;;5.63;3.75;;;23.90;56.00;;;;;;10163387;28;20028;-60
2021/07/03 09:58:35;;;;;;;4.20;3.03;;;24.00;55.70;;;;;;10162097;28;21016;-59
2021/07/03 10:03:26;;;;;;;5.75;3.17;;;24.00;55.50;;;;;;10163668;28;20051;-59
2021/07/03 10:08:20;;;;;;;5.18;3.17;;;24.20;55.00;;;;;;10161918;28;20336;-58
2021/07/03 10:13:16;;;;;;;;;;;24.30;54.50;;;;;;10162548;28;20423;-59
2021/07/03 10:18:21;;;;;;;5.82;3.25;;;24.30;54.00;;;;;;10161977;28;20051;-58
2021/07/03 10:23:12;;;;;;;4.43;2.85;;;24.50;53.80;;;;;;10165173;28;20501;-58
2021/07/03 10:28:11;;;;;;;3.22;2.65;;;24.60;52.90;;;;;;10163114;28;20119;-58
2021/07/03 10:33:05;;;;;;;5.80;3.83;;;24.70;51.90;;;;;;10144965;28;20032;-58
2021/07/03 10:37:56;;;;;;;4.78;2.08;;;24.70;51.20;;;;;;10162712;28;20055;-59
2021/07/03 10:42:48;;;;;;;3.00;2.28;;;24.70;50.70;;;;;;10161000;28;20110;-58
2021/07/03 10:47:40;;;;;;;4.82;2.55;;;24.90;50.00;;;;;;10162387;28;20620;-58
2021/07/03 10:52:39;;;;;;;4.85;2.72;;;25.10;49.40;;;;;;10159862;28;20181;-60
2021/07/03 10:57:30;;;;;;;4.43;2.55;;;25.10;48.70;;;;;;10163610;28;20509;-58
2021/07/03 11:02:30;;;;;;;3.80;2.75;;;25.30;48.50;;;;;;10167820;28;20162;-58
2021/07/03 11:07:32;;;;;;;3.97;2.55;;;25.40;48.30;;;;;;10169368;28;20043;-59
2021/07/03 11:12:27;;;;;;;4.75;2.70;;;25.50;48.00;;;;;;10167892;28;20105;-58
2021/07/03 11:17:19;;;;;;;3.70;2.85;;;25.70;48.00;;;;;;10155933;28;20044;-59
2021/07/03 11:22:11;;;;;;;3.45;2.40;;;25.60;47.80;;;;;;10167433;28;20441;-58
2021/07/03 11:27:02;;;;;;;3.78;2.60;;;25.70;47.30;;;;;;10165158;28;20055;-61
2021/07/03 11:32:06;;;;;;;3.53;2.95;;;25.80;46.90;;;;;;10168637;28;20119;-59
2021/07/03 11:36:56;;;;;;;6.30;3.80;;;25.60;46.70;;;;;;10165993;28;20055;-60
2021/07/03 11:41:47;;;;;;;3.17;2.60;;;25.70;46.80;;;;;;10167333;28;20145;-59
2021/07/03 11:46:38;;;;;;;4.22;2.60;;;25.90;46.40;;;;;;10165779;28;20086;-58
2021/07/03 11:51:29;;;;;;;3.80;2.60;;;26.30;45.70;;;;;;10167283;28;20607;-58
2021/07/03 11:56:21;;;;;;;3.83;2.10;;;26.30;45.40;;;;;;10164421;28;20101;-59
2021/07/03 12:01:16;;;;;;;2.22;1.98;;;26.50;45.20;;;;;;10166552;28;20348;-58
2021/07/03 12:06:07;;;;;;;3.33;2.60;;;26.70;44.70;;;;;;10164873;28;20028;-59
2021/07/03 12:11:01;;;;;;;4.07;2.22;;;27.00;44.10;;;;;;10165208;28;20486;-57
2021/07/03 12:15:58;;;;;;;4.00;2.47;;;27.30;43.60;;;;;;10166054;28;20065;-59
2021/07/03 12:20:48;;;;;;;5.25;2.42;;;27.90;43.00;;;;;;10163585;28;20584;-58
2021/07/03 12:25:40;;;;;;;3.58;2.92;;;28.40;42.80;;;;;;10166096;28;20315;-59
2021/07/03 12:30:32;;;;;;;2.55;2.10;;;29.00;42.40;;;;;;10165461;28;20546;-59
2021/07/03 12:35:23;;;;;;;3.70;2.17;;;29.30;41.80;;;;;;10166069;28;20024;-58
2021/07/03 12:40:17;;;;;;;2.53;2.20;;;29.90;41.80;;;;;;10162733;28;20113;-58
2021/07/03 12:45:09;;;;;;;2.65;2.20;;;30.50;41.30;;;;;;10165741;28;20043;-58
2021/07/03 12:50:04;;;;;;;2.80;1.97;;;30.90;40.70;;;;;;10164416;28;20091;-59
2021/07/03 12:54:56;;;;;;;3.47;2.25;;;30.80;39.50;;;;;;10166396;28;20568;-59
2021/07/03 12:59:48;;;;;;;3.47;1.95;;;32.20;38.50;;;;;;10164551;28;20048;-57
2021/07/03 13:04:47;;;;;;;2.83;1.95;;;33.20;37.70;;;;;;10164809;28;20036;-58
2021/07/03 13:09:37;;;;;;;2.63;2.42;;;34.10;36.50;;;;;;10163794;28;20442;-58
2021/07/03 13:14:28;;;;;;;3.33;1.93;;;33.70;35.50;;;;;;10146761;28;20063;-58
2021/07/03 13:19:19;;;;;;;2.20;1.67;;;34.90;34.90;;;;;;10163001;28;20477;-58
2021/07/03 13:24:09;;;;;;;2.63;2.00;;;35.70;33.70;;;;;;10162192;28;20039;-58
2021/07/03 13:29:00;;;;;;;2.00;1.73;;;34.70;33.20;;;;;;10164629;28;20115;-57
2021/07/03 13:33:51;;;;;;;2.65;2.10;;;34.10;33.00;;;;;;10161101;28;20063;-58
2021/07/03 13:38:42;;;;;;;4.53;2.20;;;33.20;33.40;;;;;;10164363;28;20482;-58
2021/07/03 13:43:33;;;;;;;2.47;2.10;;;32.50;33.00;;;;;;10162009;28;20536;-59
2021/07/03 13:48:24;;;;;;;1.85;1.60;;;32.40;32.50;;;;;;10163781;28;20553;-58
2021/07/03 13:53:15;;;;;;;2.90;1.88;;;32.00;32.40;;;;;;10161874;28;20241;-59
2021/07/03 13:58:06;;;;;;;3.10;2.22;;;31.50;32.20;;;;;;10161211;28;20071;-58
2021/07/03 14:02:57;;;;;;;2.10;1.90;;;30.80;32.60;;;;;;10162614;28;20531;-59
2021/07/03 14:07:49;;;;;;;1.98;1.50;;;30.40;32.70;;;;;;10154053;28;20047;-59
2021/07/03 14:12:39;;;;;;;2.83;2.10;;;30.00;32.70;;;;;;10162376;28;20032;-58
2021/07/03 14:17:32;;;;;;;2.40;1.95;;;29.70;33.10;;;;;;10145342;28;20487;-57
2021/07/03 14:22:23;;;;;;;2.55;2.17;;;29.30;33.20;;;;;;10161787;28;20055;-59
2021/07/03 14:27:14;;;;;;;2.78;2.50;;;29.00;33.40;;;;;;10142848;28;20028;-60
2021/07/03 14:32:06;;;;;;;3.67;2.63;;;28.80;33.80;;;;;;10162944;28;20239;-59
2021/07/03 14:36:57;;;;;;;4.15;3.30;;;28.80;34.10;;;;;;10169150;28;20068;-59
2021/07/03 14:41:48;;;;;;;3.80;2.42;;;29.10;34.10;;;;;;10167330;28;20758;-58
2021/07/03 14:46:41;;;;;;;3.05;2.20;;;29.60;33.90;;;;;;10170204;28;20044;-58
2021/07/03 14:51:32;;;;;;;2.13;1.83;;;29.80;33.90;;;;;;10150838;28;20565;-59
2021/07/03 14:56:22;;;;;;;2.75;2.17;;;29.60;34.20;;;;;;10170537;28;20115;-58
2021/07/03 15:01:13;;;;;;;3.13;2.00;;;29.10;34.50;;;;;;10166468;28;20559;-59
2021/07/03 15:06:04;;;;;;;3.33;2.60;;;29.00;34.90;;;;;;10169845;28;20028;-58
2021/07/03 15:10:54;;;;;;;3.20;1.88;;;28.90;35.30;;;;;;10167829;28;20035;-59
2021/07/03 15:15:46;;;;;;;2.97;2.50;;;28.70;35.20;;;;;;10157797;28;20020;-57
2021/07/03 15:20:36;;;;;;;11.43;3.22;;;28.50;35.40;;;;;;10156201;28;20497;-56
2021/07/03 15:25:27;;;;;;;2.85;1.80;;;28.40;35.50;;;;;;10166577;28;20032;-57
2021/07/03 15:30:20;;;;;;;2.83;1.90;;;28.20;35.90;;;;;;10167242;28;20470;-58
2021/07/03 15:35:11;;;;;;;2.72;2.30;;;28.00;36.10;;;;;;10167007;28;20050;-59
2021/07/03 15:40:03;;;;;;;4.00;2.05;;;27.80;36.30;;;;;;10167882;28;20047;-59
2021/07/03 15:44:54;;;;;;;2.45;1.85;;;27.60;36.60;;;;;;10150281;28;20037;-58
2021/07/03 15:49:45;;;;;;;3.55;2.05;;;27.30;37.00;;;;;;10150018;28;20032;-58
2021/07/03 15:54:36;;;;;;;3.25;1.75;;;27.20;37.40;;;;;;10150541;28;20036;-57
2021/07/03 15:59:27;;;;;;;2.72;1.83;;;27.00;37.50;;;;;;10166846;28;20051;-58
2021/07/03 16:04:18;;;;;;;3.47;3.00;;;27.00;37.80;;;;;;10171216;28;20521;-58
2021/07/03 16:09:08;;;;;;;2.33;2.13;;;26.80;38.00;;;;;;10161269;28;20109;-58
2021/07/03 16:13:59;;;;;;;2.75;1.80;;;26.70;38.50;;;;;;10161848;28;20051;-58
2021/07/03 16:18:50;;;;;;;4.10;2.70;;;26.60;39.00;;;;;;10164320;28;20185;-60
2021/07/03 16:23:40;;;;;;;5.10;2.78;;;26.30;40.60;;;;;;10167386;28;20040;-58
2021/07/03 16:28:32;;;;;;;4.35;3.13;;;25.90;42.60;;;;;;10164149;28;20043;-57
2021/07/03 16:33:23;;;;;;;6.32;3.83;;;25.70;43.80;;;;;;10165402;28;20030;-58
2021/07/03 16:38:13;;;;;;;6.22;4.10;;;25.70;44.70;;;;;;10165095;28;20032;-58
2021/07/03 16:43:04;;;;;;;6.53;4.13;;;25.60;46.10;;;;;;10164829;28;20102;-58
2021/07/03 16:47:55;;;;;;;5.22;3.55;;;25.40;47.20;;;;;;10147136;28;20094;-58
2021/07/03 16:52:45;;;;;;;5.10;2.97;;;25.20;48.40;;;;;;10156649;28;20028;-57
2021/07/03 16:57:38;;;;;;;6.22;3.10;;;25.00;49.80;;;;;;10163616;28;20136;-58
2021/07/03 17:02:28;;;;;;;6.43;3.40;;;25.00;50.30;;;;;;10162849;28;20124;-58
2021/07/03 17:07:19;;;;;;;5.30;2.95;;;24.90;51.00;;;;;;10165034;28;20115;-58
2021/07/03 17:12:10;;;;;;;5.25;3.55;;;24.80;51.60;;;;;;10159191;28;20086;-59
2021/07/03 17:17:01;;;;;;;3.95;3.03;;;24.50;52.80;;;;;;10165138;28;20040;-59
2021/07/03 17:21:51;;;;;;;3.83;2.90;;;24.20;53.50;;;;;;10160850;28;20310;-57
2021/07/03 17:26:43;;;;;;;6.95;3.33;;;24.00;55.50;;;;;;10162446;28;20035;-59
2021/07/03 17:31:34;;;;;;;3.17;2.80;;;24.10;55.00;;;;;;10162208;28;20036;-58
2021/07/03 17:36:25;;;;;;;5.13;3.17;;;24.10;55.50;;;;;;10162931;28;20031;-59
2021/07/03 17:41:16;;;;;;;5.65;3.35;;;24.10;55.70;;;;;;10162704;28;20123;-58
2021/07/03 17:46:06;;;;;;;9.93;4.97;;;24.00;56.40;;;;;;10161281;28;20039;-60
2021/07/03 17:50:57;;;;;;;7.80;4.40;;;24.00;57.00;;;;;;10164163;28;20040;-57
2021/07/03 17:55:48;;;;;;;7.38;4.55;;;24.00;57.50;;;;;;10160854;28;20306;-58
2021/07/03 18:00:38;;;;;;;6.90;3.55;;;24.00;58.00;;;;;;10163078;28;20044;-59
2021/07/03 18:05:29;;;;;;;4.95;3.45;;;23.80;58.80;;;;;;10162239;28;20075;-59
2021/07/03 18:10:20;;;;;;;4.65;3.63;;;23.50;60.00;;;;;;10169036;28;20036;-58
2021/07/03 18:15:11;;;;;;;5.53;3.50;;;23.50;60.70;;;;;;10170832;28;20059;-59
2021/07/03 18:20:03;;;;;;;6.50;3.92;;;23.30;61.50;;;;;;10171186;28;20521;-59
2021/07/03 18:24:54;;;;;;;5.57;3.05;;;23.10;62.10;;;;;;10169576;28;20036;-59
2021/07/03 18:29:45;;;;;;;5.28;3.53;;;23.10;62.20;;;;;;10169355;28;20036;-59
2021/07/03 18:34:35;;;;;;;4.63;3.25;;;23.00;62.40;;;;;;10170257;28;20036;-59
2021/07/03 18:39:26;;;;;;;3.67;2.80;;;22.90;63.00;;;;;;10168000;28;20044;-58
2021/07/03 18:44:17;;;;;;;6.05;3.35;;;22.90;63.10;;;;;;10170082;28;20032;-59
2021/07/03 18:49:08;;;;;;;5.43;2.88;;;22.70;63.40;;;;;;10169363;28;20579;-58
2021/07/03 18:53:59;;;;;;;4.78;2.97;;;22.60;63.80;;;;;;10170383;28;20039;-59
2021/07/03 18:58:50;;;;;;;4.13;3.03;;;22.50;64.20;;;;;;10168043;28;20062;-60
2021/07/03 19:03:43;;;;;;;4.97;3.45;;;22.50;64.60;;;;;;10167494;28;20040;-58
2021/07/03 19:08:33;;;;;;;4.78;3.15;;;22.40;64.90;;;;;;10152755;28;20506;-58
2021/07/03 19:13:24;;;;;;;4.50;3.13;;;22.40;64.90;;;;;;10166051;28;20068;-59
2021/07/03 19:18:16;;;;;;;5.68;3.42;;;22.30;65.50;;;;;;10169287;28;20024;-59
2021/07/03 19:23:08;;;;;;;7.57;3.58;;;22.30;65.80;;;;;;10164407;28;20525;-59
2021/07/03 19:27:59;;;;;;;6.50;4.47;;;22.40;65.70;;;;;;10154912;28;20040;-62
2021/07/03 19:32:51;;;;;;;6.85;3.90;;;22.30;66.50;;;;;;10148430;28;20032;-59
2021/07/03 19:37:42;;;;;;;4.50;3.53;;;22.30;67.20;;;;;;10155358;28;20513;-59
2021/07/03 19:42:33;;;;;;;6.35;4.03;;;22.20;67.80;;;;;;10166765;28;20036;-59
2021/07/03 19:47:24;;;;;;;6.50;3.70;;;22.20;68.10;;;;;;10165749;28;20542;-58
2021/07/03 19:52:14;;;;;;;6.03;3.80;;;22.30;68.20;;;;;;10151174;28;20161;-58
2021/07/03 19:57:05;;;;;;;5.53;3.65;;;22.20;68.80;;;;;;10166308;28;20110;-57
2021/07/03 20:01:56;;;;;;;3.65;3.17;;;22.40;68.70;;;;;;10167358;28;20040;-59
2021/07/03 20:06:46;;;;;;;6.18;3.42;;;22.30;69.30;;;;;;10148776;28;20130;-59
2021/07/03 20:11:37;;;;;;;5.03;3.63;;;22.00;70.20;;;;;;10166946;28;20066;-60
2021/07/03 20:16:28;;;;;;;6.38;2.95;;;22.10;70.30;;;;;;10162817;28;20024;-58
2021/07/03 20:21:20;;;;;;;4.63;3.22;;;22.00;70.80;;;;;;10162707;28;20097;-59
2021/07/03 20:26:11;;;;;;;4.22;3.08;;;22.10;70.40;;;;;;10165391;28;20395;-59
2021/07/03 20:31:02;;;;;;;4.30;2.90;;;22.00;70.60;;;;;;10164882;28;20111;-58
2021/07/03 20:35:52;;;;;;;4.35;3.03;;;21.80;71.20;;;;;;10167075;28;20337;-59
2021/07/03 20:40:49;;;;;;;4.70;3.33;;;21.90;70.90;;;;;;10161778;28;20055;-58
2021/07/03 20:45:40;;;;;;;4.85;3.13;;;21.70;71.30;;;;;;10164953;28;20350;-57
2021/07/03 20:50:30;;;;;;;4.25;3.05;;;21.70;71.60;;;;;;10162472;28;20048;-58
2021/07/03 20:55:21;;;;;;;5.13;3.55;;;21.60;71.60;;;;;;10164328;28;20031;-58
2021/07/03 21:00:13;;;;;;;6.80;3.13;;;21.60;71.70;;;;;;10164397;28;20063;-58
2021/07/03 21:05:06;;;;;;;4.95;3.03;;;21.70;71.70;;;;;;10170866;28;20032;-58
2021/07/03 21:09:57;;;;;;;3.97;3.28;;;21.70;71.50;;;;;;10165249;28;20127;-57
2021/07/03 21:14:47;;;;;;;5.03;3.25;;;21.80;71.20;;;;;;10155379;28;20118;-59
2021/07/03 21:19:40;;;;;;;3.45;3.03;;;21.80;71.20;;;;;;10168317;28;20114;-58
2021/07/03 21:24:31;;;;;;;6.05;3.85;;;21.70;71.30;;;;;;10163801;28;20020;-58
2021/07/03 21:29:22;;;;;;;4.47;3.28;;;21.70;71.60;;;;;;10173261;28;20162;-58
2021/07/03 21:34:12;;;;;;;4.65;3.40;;;21.60;71.60;;;;;;10162146;28;20043;-57
2021/07/03 21:39:05;;;;;;;4.10;2.88;;;21.60;71.70;;;;;;10169141;28;20044;-58
2021/07/03 21:43:55;;;;;;;4.25;2.90;;;21.70;71.70;;;;;;10168455;28;20051;-57
2021/07/03 21:48:46;;;;;;;5.88;3.85;;;21.60;71.70;;;;;;10163601;28;20399;-59
2021/07/03 21:53:37;;;;;;;4.38;3.30;;;21.50;72.00;;;;;;10161951;28;20042;-58
2021/07/03 21:58:28;;;;;;;3.83;2.53;;;21.40;71.90;;;;;;10168492;28;20029;-58
2021/07/03 22:03:21;;;;;;;4.90;2.80;;;21.40;72.40;;;;;;10164217;28;20044;-58
2021/07/03 22:08:16;;;;;;;5.45;3.97;;;21.40;72.40;;;;;;10159573;28;20036;-60
2021/07/03 22:13:08;;;;;;;5.80;3.17;;;21.50;72.10;;;;;;10164370;28;20227;-58
2021/07/03 22:17:59;;;;;;;4.75;3.30;;;21.40;72.10;;;;;;10160579;28;20017;-58
2021/07/03 22:22:50;;;;;;;3.42;2.45;;;21.30;72.60;;;;;;10163129;28;20044;-59
2021/07/03 22:27:54;;;;;;;6.28;3.13;;;21.20;72.60;;;;;;10143701;28;20463;-59
2021/07/03 22:32:44;;;;;;;7.00;3.97;;;21.10;72.90;;;;;;10163777;28;20581;-57
2021/07/03 22:37:36;;;;;;;4.82;3.08;;;21.10;72.70;;;;;;10143647;28;20123;-58
2021/07/03 22:42:27;;;;;;;4.43;3.60;;;21.20;72.50;;;;;;10161533;28;20043;-59
2021/07/03 22:47:18;;;;;;;7.40;4.10;;;21.10;72.50;;;;;;10162065;28;20028;-60
2021/07/03 22:52:09;;;;;;;4.60;3.00;;;21.10;72.60;;;;;;10159773;28;20305;-59
2021/07/03 22:57:01;;;;;;;3.35;2.65;;;21.10;72.70;;;;;;10170074;28;20077;-59
2021/07/03 23:01:51;;;;;;;4.95;3.28;;;21.10;72.80;;;;;;10166885;28;20362;-58
2021/07/03 23:06:42;;;;;;;4.68;3.28;;;21.10;72.90;;;;;;10170068;28;20134;-59
2021/07/03 23:11:32;;;;;;;4.47;3.28;;;21.10;72.80;;;;;;10167020;28;20031;-58
2021/07/03 23:16:23;;;;;;;4.97;2.95;;;21.00;73.30;;;;;;10168548;28;20138;-58
2021/07/03 23:21:14;;;;;;;6.68;4.05;;;21.00;73.40;;;;;;10146939;28;20597;-58
2021/07/03 23:26:05;;;;;;;7.78;3.85;;;21.00;73.60;;;;;;10167679;28;20038;-59
2021/07/03 23:30:56;;;;;;;5.97;3.20;;;21.00;73.70;;;;;;10168545;28;20290;-59
2021/07/03 23:35:47;;;;;;;5.28;3.03;;;21.00;73.50;;;;;;10165603;28;20044;-58
2021/07/03 23:40:38;;;;;;;4.97;3.33;;;21.00;74.00;;;;;;10151673;28;20032;-58
2021/07/03 23:45:30;;;;;;;5.13;4.00;;;21.00;73.90;;;;;;10166294;28;20052;-57
2021/07/03 23:50:23;;;;;;;3.70;2.85;;;20.90;74.00;;;;;;10168700;28;20402;-58
2021/07/03 23:55:15;;;;;;;4.75;3.30;;;20.90;74.20;;;;;;10165732;28;20036;-58
